Time;durP1;ratioP1;P1;durP2;ratioP2;P2;SDS_P1;SDS_P2;PMS_P1;PMS_P2;Temp;Humidity;BMP_temperature;BMP_pressure;BME280_temperature;BME280_humidity;BME280_pressure;Samples;Min_cycle;Max_cycle;Signal;HPM_P1;HPM_P2
2023/03/08 00:00:34;;;;;;;0.10;0.10;;;;;;;-4.97;83.21;98632.44;5081580;28;20044;-73
2023/03/08 00:03:01;;;;;;;0.10;0.10;;;;;;;-4.93;83.17;98634.47;5083355;28;20067;-73
2023/03/08 00:05:28;;;;;;;0.10;0.10;;;;;;;-4.98;82.99;98634.25;5083728;28;20507;-73
2023/03/08 00:07:54;;;;;;;0.10;0.10;;;;;;;-5.01;83.17;98642.69;5083687;28;20048;-73
2023/03/08 00:10:21;;;;;;;0.10;0.10;;;;;;;-5.02;83.10;98633.03;5083479;28;20527;-73
2023/03/08 00:12:47;;;;;;;0.10;0.10;;;;;;;-5.07;83.27;98640.78;5063595;28;20060;-74
2023/03/08 00:15:15;;;;;;;0.10;0.10;;;;;;;-5.08;83.11;98639.16;5064442;28;20056;-73
2023/03/08 00:17:41;;;;;;;0.20;0.20;;;;;;;-5.14;83.27;98630.16;5063947;28;20151;-73
2023/03/08 00:20:14;;;;;;;0.13;0.13;;;;;;;-5.12;83.31;98636.91;5062923;28;20090;-73
2023/03/08 00:22:41;;;;;;;0.10;0.10;;;;;;;-5.19;83.22;98636.06;5066730;28;20048;-73
2023/03/08 00:25:09;;;;;;;0.10;0.10;;;;;;;-5.29;83.51;98631.13;5066989;28;20052;-73
2023/03/08 00:27:35;;;;;;;0.10;0.10;;;;;;;-5.31;83.67;98640.34;5065263;28;20227;-74
2023/03/08 00:30:02;;;;;;;0.20;0.20;;;;;;;-5.24;83.83;98645.69;5064344;28;20444;-73
2023/03/08 00:32:31;;;;;;;0.20;0.20;;;;;;;-5.25;83.83;98650.19;5065057;28;20511;-73
2023/03/08 00:34:57;;;;;;;0.10;0.10;;;;;;;-5.21;84.07;98653.28;5066558;28;20055;-73
2023/03/08 00:37:24;;;;;;;0.10;0.10;;;;;;;-5.27;83.98;98647.72;5064025;28;20547;-73
2023/03/08 00:39:51;;;;;;;0.10;0.10;;;;;;;-5.31;84.26;98648.31;5048956;28;20056;-73
2023/03/08 00:42:17;;;;;;;0.10;0.10;;;;;;;-5.32;84.43;98644.81;5067195;28;20051;-72
2023/03/08 00:44:43;;;;;;;0.20;0.20;;;;;;;-5.25;84.60;98644.03;5063025;28;20056;-73
2023/03/08 00:47:10;;;;;;;0.25;0.25;;;;;;;-5.18;84.81;98650.19;5047808;28;20420;-73
2023/03/08 00:49:39;;;;;;;0.20;0.20;;;;;;;-5.19;84.70;98635.22;5064205;28;20150;-73
2023/03/08 00:52:06;;;;;;;0.20;0.20;;;;;;;-5.22;84.59;98641.81;5045491;28;20036;-72
2023/03/08 00:54:32;;;;;;;0.17;0.17;;;;;;;-5.25;84.42;98630.72;5047351;28;20511;-73
2023/03/08 00:56:58;;;;;;;0.10;0.10;;;;;;;-5.20;84.39;98652.25;5064569;28;20068;-73
2023/03/08 00:59:24;;;;;;;0.10;0.10;;;;;;;-5.33;84.16;98648.50;5047068;28;20052;-72
2023/03/08 01:01:51;;;;;;;0.10;0.10;;;;;;;-5.46;84.72;98643.97;5065143;28;20063;-72
2023/03/08 01:04:17;;;;;;;0.10;0.10;;;;;;;-5.39;84.89;98651.16;5048748;28;20537;-72
2023/03/08 01:06:45;;;;;;;0.10;0.10;;;;;;;-5.35;85.09;98639.91;5064457;28;20051;-72
2023/03/08 01:09:11;;;;;;;;;;;;;;;-5.33;85.25;98648.50;5063158;28;20044;-72
2023/03/08 01:11:38;;;;;;;0.10;0.10;;;;;;;-5.39;84.78;98646.66;5059961;28;20401;-72
2023/03/08 01:14:09;;;;;;;0.10;0.10;;;;;;;-5.41;84.93;98651.38;5066500;28;20530;-72
2023/03/08 01:16:35;;;;;;;0.10;0.10;;;;;;;-5.41;84.93;98643.38;5063671;28;20310;-71
2023/03/08 01:19:03;;;;;;;0.10;0.10;;;;;;;-5.37;85.02;98651.81;5065464;28;20052;-71
2023/03/08 01:21:30;;;;;;;0.10;0.10;;;;;;;-5.54;85.02;98620.16;5033859;28;20072;-72
2023/03/08 01:23:58;;;;;;;0.10;0.10;;;;;;;-5.44;84.91;98641.91;5029719;28;20049;-71
2023/03/08 01:26:25;;;;;;;0.10;0.10;;;;;;;-5.47;84.86;98645.00;5063568;28;20064;-72
2023/03/08 01:28:55;;;;;;;0.20;0.20;;;;;;;-5.52;85.00;98638.59;5064272;28;20048;-72
2023/03/08 01:31:23;;;;;;;0.10;0.10;;;;;;;-5.56;85.19;98628.34;5064447;28;20247;-72
2023/03/08 01:33:52;;;;;;;0.10;0.10;;;;;;;-5.58;85.14;98627.72;5064092;28;20408;-72
2023/03/08 01:36:20;;;;;;;0.17;0.17;;;;;;;-5.57;85.12;98636.53;5048249;28;20056;-71
2023/03/08 01:38:46;;;;;;;0.13;0.13;;;;;;;-5.68;85.22;98623.78;5047575;28;20063;-72
2023/03/08 01:41:17;;;;;;;0.10;0.10;;;;;;;-5.66;85.47;98622.56;5065496;28;20051;-72
2023/03/08 01:43:43;;;;;;;0.10;0.10;;;;;;;-5.69;85.61;98628.28;5065609;28;20290;-72
2023/03/08 01:46:16;;;;;;;0.10;0.10;;;;;;;-5.88;85.85;98593.38;5046310;28;20052;-72
2023/03/08 01:48:50;;;;;;;0.10;0.10;;;;;;;-5.76;85.67;98620.25;5063063;28;20041;-72
2023/03/08 01:51:21;;;;;;;0.10;0.10;;;;;;;-5.99;85.63;98600.09;5065419;28;20055;-72
2023/03/08 01:53:48;;;;;;;0.20;0.20;;;;;;;-5.92;85.84;98623.25;5063684;28;20040;-73
2023/03/08 01:56:18;;;;;;;0.27;0.20;;;;;;;-6.02;85.86;98618.31;5067398;28;20075;-72
2023/03/08 01:58:47;;;;;;;0.10;0.10;;;;;;;-6.11;85.90;98622.97;5079554;28;20302;-73
2023/03/08 02:01:13;;;;;;;0.27;0.20;;;;;;;-6.21;86.16;98626.00;5081825;28;20125;-72
2023/03/08 02:03:40;;;;;;;0.20;0.20;;;;;;;-6.22;86.31;98624.34;5083899;28;20597;-72
2023/03/08 02:06:08;;;;;;;0.10;0.10;;;;;;;-6.25;86.38;98623.91;5066840;28;20414;-72
2023/03/08 02:08:34;;;;;;;0.10;0.10;;;;;;;-6.30;86.43;98632.47;5082314;28;20087;-72
2023/03/08 02:11:00;;;;;;;0.10;0.10;;;;;;;-6.32;86.85;98629.19;5086666;28;20055;-72
2023/03/08 02:13:29;;;;;;;0.10;0.10;;;;;;;-6.36;86.68;98635.91;5083647;28;20071;-73
2023/03/08 02:15:58;;;;;;;0.10;0.10;;;;;;;-6.42;86.71;98634.84;5067396;28;20039;-73
2023/03/08 02:18:26;;;;;;;0.10;0.10;;;;;;;-6.47;86.87;98631.94;5081284;28;20331;-73
2023/03/08 02:20:52;;;;;;;0.10;0.10;;;;;;;-6.47;86.86;98638.06;5082567;28;20139;-72
2023/03/08 02:23:21;;;;;;;0.10;0.10;;;;;;;-6.50;86.79;98633.13;5081723;28;20040;-72
2023/03/08 02:25:51;;;;;;;0.10;0.10;;;;;;;-6.60;86.93;98629.97;5070103;28;20073;-72
2023/03/08 02:28:18;;;;;;;0.20;0.10;;;;;;;-6.63;86.66;98638.34;5089920;28;20576;-72
2023/03/08 02:30:45;;;;;;;0.10;0.10;;;;;;;-6.70;87.05;98639.13;5085006;28;20523;-72
2023/03/08 02:33:11;;;;;;;0.10;0.10;;;;;;;-6.76;86.94;98645.19;5069099;28;20071;-72
2023/03/08 02:35:41;;;;;;;0.10;0.10;;;;;;;-6.83;86.75;98639.00;5083773;28;20071;-72
2023/03/08 02:38:08;;;;;;;0.20;0.20;;;;;;;-6.90;87.06;98632.78;5068166;28;20404;-72
2023/03/08 02:40:36;;;;;;;0.10;0.10;;;;;;;-6.96;86.96;98631.69;5084573;28;20048;-72
2023/03/08 02:43:02;;;;;;;0.55;0.20;;;;;;;-6.96;87.38;98636.22;5069399;28;20048;-71
2023/03/08 02:45:28;;;;;;;0.23;0.23;;;;;;;-7.04;87.11;98637.16;5089960;28;20048;-71
2023/03/08 02:47:54;;;;;;;0.20;0.20;;;;;;;-7.06;87.39;98639.19;5086942;28;20044;-71
2023/03/08 02:50:20;;;;;;;0.20;0.20;;;;;;;-7.17;87.27;98633.34;5083821;28;20048;-71
2023/03/08 02:52:47;;;;;;;0.20;0.20;;;;;;;-7.19;87.49;98645.16;5086502;28;20071;-73
2023/03/08 02:55:13;;;;;;;0.30;0.20;;;;;;;-7.21;87.63;98642.72;5068709;28;20040;-73
2023/03/08 02:57:40;;;;;;;0.17;0.17;;;;;;;-7.20;87.65;98646.16;5068493;28;20036;-73
2023/03/08 03:00:09;;;;;;;0.23;0.20;;;;;;;-7.26;87.40;98642.41;5087084;28;20418;-73
2023/03/08 03:02:35;;;;;;;0.10;0.10;;;;;;;-7.33;87.48;98647.69;5086390;28;20052;-73
2023/03/08 03:05:03;;;;;;;0.10;0.10;;;;;;;-7.39;87.30;98656.38;5087182;28;20044;-73
2023/03/08 03:07:29;;;;;;;0.20;0.20;;;;;;;-7.43;87.41;98647.97;5087384;28;20527;-71
2023/03/08 03:09:55;;;;;;;0.10;0.10;;;;;;;-7.49;87.00;98645.22;5081954;28;20167;-72
2023/03/08 03:12:21;;;;;;;0.10;0.10;;;;;;;-7.51;87.37;98652.56;5081604;28;20044;-72
2023/03/08 03:14:50;;;;;;;0.10;0.10;;;;;;;-7.54;87.23;98653.78;5082254;28;20139;-72
2023/03/08 03:17:17;;;;;;;0.10;0.10;;;;;;;-7.61;87.37;98653.69;5030602;28;20048;-73
2023/03/08 03:19:43;;;;;;;0.10;0.10;;;;;;;-7.67;87.38;98653.59;5048087;28;20056;-74
2023/03/08 03:22:09;;;;;;;0.10;0.10;;;;;;;-7.76;87.16;98645.72;5064401;28;20040;-73
2023/03/08 03:24:35;;;;;;;0.10;0.10;;;;;;;-7.80;87.04;98659.53;5047884;28;20511;-73
2023/03/08 03:27:01;;;;;;;0.20;0.20;;;;;;;-7.86;86.99;98663.78;5066607;28;20041;-73
2023/03/08 03:29:32;;;;;;;0.20;0.20;;;;;;;-7.87;86.79;98664.78;5079851;28;20055;-73
2023/03/08 03:32:10;;;;;;;0.20;0.20;;;;;;;-8.00;86.51;98668.88;5066635;28;20143;-73
2023/03/08 03:34:36;;;;;;;0.10;0.10;;;;;;;-8.12;86.40;98676.47;5065455;28;20048;-74
2023/03/08 03:37:03;;;;;;;0.20;0.20;;;;;;;-8.26;86.17;98669.31;5047784;28;20056;-73
2023/03/08 03:39:32;;;;;;;0.10;0.10;;;;;;;-8.26;86.62;98674.63;5065002;28;20072;-73
2023/03/08 03:41:59;;;;;;;0.13;0.13;;;;;;;-8.12;86.73;98673.81;5047528;28;20072;-73
2023/03/08 03:44:28;;;;;;;0.83;0.40;;;;;;;-7.93;86.19;98670.81;5071689;28;20127;-73
2023/03/08 03:46:54;;;;;;;2.90;0.73;;;;;;;-7.83;85.88;98671.38;5085021;28;20139;-73
2023/03/08 03:49:25;;;;;;;2.37;0.63;;;;;;;-7.74;85.44;98664.94;5069322;28;20048;-73
2023/03/08 03:51:51;;;;;;;0.13;0.13;;;;;;;-7.67;85.65;98664.22;5085714;28;20048;-73
2023/03/08 03:54:25;;;;;;;0.10;0.10;;;;;;;-7.50;85.73;98662.16;5066626;28;20044;-73
2023/03/08 03:56:56;;;;;;;1.70;0.47;;;;;;;-7.36;85.72;98666.63;5066627;28;20048;-73
2023/03/08 03:59:24;;;;;;;0.20;0.20;;;;;;;-7.19;85.20;98661.09;5076299;28;20047;-73
2023/03/08 04:01:50;;;;;;;0.87;0.30;;;;;;;-7.08;85.46;98655.31;5086092;28;20044;-72
2023/03/08 04:04:26;;;;;;;0.20;0.20;;;;;;;-6.96;85.19;98652.97;5084670;28;20043;-73
2023/03/08 04:06:53;;;;;;;4.63;1.00;;;;;;;-6.88;84.91;98658.16;5066759;28;20058;-73
2023/03/08 04:09:23;;;;;;;0.20;0.20;;;;;;;-6.91;85.07;98655.06;5069048;28;20072;-73
2023/03/08 04:12:04;;;;;;;0.27;0.27;;;;;;;-6.74;84.78;98664.44;5069520;28;20071;-73
2023/03/08 04:14:30;;;;;;;0.10;0.10;;;;;;;-6.59;84.65;98671.50;5082149;28;20040;-73
2023/03/08 04:16:57;;;;;;;0.10;0.10;;;;;;;-6.48;84.33;98671.00;5055215;28;20156;-73
2023/03/08 04:19:30;;;;;;;1.00;0.47;;;;;;;-6.42;84.20;98661.44;5064858;28;20054;-73
2023/03/08 04:21:58;;;;;;;0.20;0.20;;;;;;;-6.35;83.87;98677.47;5063413;28;20044;-74
2023/03/08 04:24:30;;;;;;;0.73;0.27;;;;;;;-6.39;83.62;98671.69;5063925;28;20049;-73
2023/03/08 04:27:01;;;;;;;0.17;0.17;;;;;;;-6.28;83.50;98686.31;5048147;28;20128;-71
2023/03/08 04:29:28;;;;;;;0.20;0.20;;;;;;;-6.27;83.55;98677.31;5072171;28;20053;-72
2023/03/08 04:31:58;;;;;;;0.20;0.20;;;;;;;-6.23;83.50;98681.25;5063551;28;20094;-72
2023/03/08 04:34:26;;;;;;;0.50;0.20;;;;;;;-6.19;83.71;98684.31;5057082;28;20036;-72
2023/03/08 04:36:54;;;;;;;0.20;0.20;;;;;;;-6.13;83.38;98697.69;5066869;28;20710;-72
2023/03/08 04:39:21;;;;;;;0.20;0.20;;;;;;;-6.10;83.38;98701.81;5064560;28;20380;-72
2023/03/08 04:41:47;;;;;;;0.20;0.20;;;;;;;-6.13;83.24;98696.88;5047749;28;20086;-72
2023/03/08 04:44:27;;;;;;;0.67;0.40;;;;;;;-6.17;83.53;98701.75;5029733;28;20083;-72
2023/03/08 04:46:53;;;;;;;3.73;0.80;;;;;;;-6.39;83.76;98692.97;5063778;28;20048;-72
2023/03/08 04:49:27;;;;;;;3.10;1.10;;;;;;;-6.32;84.45;98724.97;5065284;28;20610;-72
2023/03/08 04:52:00;;;;;;;1.43;0.53;;;;;;;-6.43;84.92;98721.78;5064337;28;20511;-72
2023/03/08 04:54:27;;;;;;;0.20;0.20;;;;;;;-6.40;84.95;98731.25;5076248;28;20055;-72
2023/03/08 04:57:00;;;;;;;0.90;0.20;;;;;;;-6.43;85.46;98711.16;5084870;28;20055;-71
2023/03/08 04:59:26;;;;;;;0.37;0.37;;;;;;;-6.39;85.16;98719.59;5076453;28;20052;-72
2023/03/08 05:01:55;;;;;;;0.20;0.20;;;;;;;-6.33;85.26;98724.13;5063060;28;20483;-72
2023/03/08 05:04:22;;;;;;;0.88;0.30;;;;;;;-6.31;85.36;98721.28;5064776;28;20049;-72
2023/03/08 05:06:48;;;;;;;0.77;0.40;;;;;;;-6.33;85.39;98720.66;5066589;28;20054;-72
2023/03/08 05:09:21;;;;;;;0.30;0.30;;;;;;;-6.32;85.53;98720.47;5081825;28;20106;-73
2023/03/08 05:11:49;;;;;;;0.40;0.20;;;;;;;-6.27;85.62;98717.22;5045834;28;20094;-72
2023/03/08 05:14:16;;;;;;;0.20;0.20;;;;;;;-6.24;85.35;98722.19;5046500;28;20051;-72
2023/03/08 05:16:42;;;;;;;0.17;0.17;;;;;;;-6.25;85.18;98714.38;5047910;28;20052;-72
2023/03/08 05:19:09;;;;;;;0.20;0.20;;;;;;;-6.25;85.52;98720.50;5065138;28;20053;-72
2023/03/08 05:21:42;;;;;;;0.20;0.20;;;;;;;-6.19;85.27;98722.41;5064972;28;20062;-72
2023/03/08 05:24:10;;;;;;;0.20;0.20;;;;;;;-6.18;85.29;98709.91;5052638;28;20044;-72
2023/03/08 05:26:39;;;;;;;0.20;0.20;;;;;;;-6.09;85.14;98703.44;5061895;28;20052;-73
2023/03/08 05:29:05;;;;;;;0.13;0.13;;;;;;;-5.93;84.62;98710.31;5059715;28;20091;-73
2023/03/08 05:31:35;;;;;;;0.20;0.20;;;;;;;-5.86;84.48;98697.84;5066440;28;20040;-73
2023/03/08 05:34:03;;;;;;;0.17;0.17;;;;;;;-5.78;84.26;98698.69;5061538;28;20495;-73
2023/03/08 05:36:35;;;;;;;0.10;0.10;;;;;;;-5.82;83.64;98684.13;5074035;28;20537;-73
2023/03/08 05:39:02;;;;;;;0.20;0.20;;;;;;;-5.63;83.69;98696.75;5038595;28;20053;-73
2023/03/08 05:41:40;;;;;;;0.20;0.20;;;;;;;-5.45;83.43;98698.09;5068856;28;20048;-74
2023/03/08 05:44:07;;;;;;;0.20;0.20;;;;;;;-5.43;82.85;98690.72;5071218;28;20054;-73
2023/03/08 05:46:37;;;;;;;;;;;;;;;-5.31;82.73;98693.63;5060566;28;20047;-73
2023/03/08 05:49:04;;;;;;;0.13;0.13;;;;;;;-5.24;82.00;98694.47;5071731;28;19954;-73
2023/03/08 05:51:33;;;;;;;0.10;0.10;;;;;;;-5.25;81.50;98684.03;5074630;28;20048;-74
2023/03/08 05:54:00;;;;;;;0.10;0.10;;;;;;;-5.10;81.29;98691.84;5071432;28;20076;-73
2023/03/08 05:56:27;;;;;;;0.10;0.10;;;;;;;-4.96;80.91;98695.41;5071227;28;20519;-73
2023/03/08 05:59:02;;;;;;;0.20;0.20;;;;;;;-5.01;80.25;98694.13;5053865;28;20051;-73
2023/03/08 06:01:29;;;;;;;0.30;0.30;;;;;;;-4.97;80.01;98705.25;5081915;28;20515;-72
2023/03/08 06:04:03;;;;;;;0.20;0.20;;;;;;;-4.91;80.10;98700.94;5058625;28;20067;-72
2023/03/08 06:06:33;;;;;;;0.20;0.20;;;;;;;-4.84;79.49;98707.94;5070213;28;20472;-72
2023/03/08 06:09:02;;;;;;;0.20;0.20;;;;;;;-4.93;79.06;98689.66;5058617;28;20045;-72
2023/03/08 06:11:29;;;;;;;0.77;0.30;;;;;;;-4.81;79.49;98700.56;5076247;28;20110;-72
2023/03/08 06:13:57;;;;;;;0.20;0.20;;;;;;;-4.65;79.27;98694.84;5072126;28;20068;-72
2023/03/08 06:16:28;;;;;;;0.10;0.10;;;;;;;-4.61;78.77;98696.06;5082385;28;20503;-73
2023/03/08 06:18:55;;;;;;;0.20;0.20;;;;;;;-4.56;78.34;98685.63;5071583;28;20048;-72
2023/03/08 06:21:21;;;;;;;0.20;0.20;;;;;;;-4.71;78.40;98653.78;5033298;28;20084;-73
2023/03/08 06:23:53;;;;;;;0.20;0.20;;;;;;;-4.37;77.84;98696.53;5074139;28;20126;-72
2023/03/08 06:26:19;;;;;;;0.20;0.20;;;;;;;-4.39;77.49;98690.59;5086680;28;20584;-72
2023/03/08 06:28:45;;;;;;;0.20;0.20;;;;;;;-4.42;77.41;98701.66;5088678;28;20055;-72
2023/03/08 06:31:14;;;;;;;0.20;0.20;;;;;;;-4.33;77.41;98695.09;5085745;28;20533;-72
2023/03/08 06:33:42;;;;;;;0.20;0.20;;;;;;;-4.13;76.91;98694.28;5084844;28;20044;-73
2023/03/08 06:36:15;;;;;;;0.40;0.30;;;;;;;-3.93;76.18;98696.13;5085532;28;20042;-73
2023/03/08 06:38:44;;;;;;;0.20;0.20;;;;;;;-3.95;75.76;98685.63;5085852;28;20051;-73
2023/03/08 06:41:11;;;;;;;0.20;0.20;;;;;;;-3.97;75.36;98676.19;5079292;28;20044;-72
2023/03/08 06:43:38;;;;;;;0.20;0.20;;;;;;;-3.80;75.19;98684.59;5073755;28;20747;-72
2023/03/08 06:46:05;;;;;;;0.20;0.20;;;;;;;-3.81;73.74;98672.25;5069050;28;20040;-72
2023/03/08 06:48:32;;;;;;;0.20;0.20;;;;;;;-3.86;74.20;98662.19;5049907;28;20052;-72
2023/03/08 06:51:00;;;;;;;0.10;0.10;;;;;;;-3.66;74.38;98656.00;5070417;28;20051;-73
2023/03/08 06:53:26;;;;;;;;;;;;;;;-3.69;72.98;98651.88;5085094;28;20518;-72
2023/03/08 06:56:01;;;;;;;0.20;0.20;;;;;;;-3.80;73.27;98650.69;5087307;28;19924;-73
2023/03/08 06:58:29;;;;;;;0.20;0.20;;;;;;;-3.76;73.48;98632.38;5084819;28;20317;-71
2023/03/08 07:00:55;;;;;;;0.20;0.20;;;;;;;-3.66;73.37;98630.09;4729199;28;9999797;-72
2023/03/08 07:03:24;;;;;;;0.20;0.20;;;;;;;-3.43;73.28;98618.09;5075132;28;20636;-72
2023/03/08 07:05:50;;;;;;;0.10;0.10;;;;;;;-3.18;71.90;98630.72;5075731;28;20048;-72
2023/03/08 07:08:18;;;;;;;0.20;0.20;;;;;;;-3.16;71.98;98632.16;5078071;28;20067;-73
2023/03/08 07:10:46;;;;;;;0.20;0.20;;;;;;;-3.11;71.64;98623.50;5051108;28;20060;-73
2023/03/08 07:13:12;;;;;;;0.20;0.20;;;;;;;-3.21;71.41;98623.13;5067758;28;20049;-72
2023/03/08 07:15:39;;;;;;;0.20;0.20;;;;;;;-3.21;71.74;98609.75;5071068;28;20040;-73
2023/03/08 07:18:05;;;;;;;0.20;0.20;;;;;;;-3.17;71.37;98605.59;5080263;28;20052;-73
2023/03/08 07:20:31;;;;;;;0.20;0.20;;;;;;;-3.28;71.49;98591.06;5046180;28;20075;-74
2023/03/08 07:23:00;;;;;;;0.20;0.20;;;;;;;-3.26;71.62;98597.03;5074778;28;20059;-73
2023/03/08 07:25:28;;;;;;;0.20;0.20;;;;;;;-3.15;71.64;98588.31;5074030;28;20476;-73
2023/03/08 07:27:57;;;;;;;0.20;0.20;;;;;;;-3.04;71.08;98586.00;5067147;28;20518;-73
2023/03/08 07:30:24;;;;;;;0.20;0.20;;;;;;;-3.05;70.79;98587.00;5068635;28;20372;-73
2023/03/08 07:32:51;;;;;;;0.20;0.20;;;;;;;-2.95;70.68;98576.66;5064471;28;20044;-73
2023/03/08 07:35:17;;;;;;;;;;;;;;;-2.94;69.32;98589.00;5066402;28;20515;-73
2023/03/08 07:37:44;;;;;;;0.23;0.23;;;;;;;-3.17;70.25;98592.25;5088577;28;19955;-73
2023/03/08 07:40:11;;;;;;;;;;;;;;;-3.23;69.52;98596.59;5082047;28;20590;-73
2023/03/08 07:42:40;;;;;;;0.20;0.20;;;;;;;-3.33;69.85;98606.94;5064367;28;19924;-73
2023/03/08 07:45:21;;;;;;;0.10;0.10;;;;;;;-3.45;70.87;98598.75;5047895;28;20419;-73
2023/03/08 07:47:49;;;;;;;0.27;0.27;;;;;;;-3.30;70.63;98591.28;5065604;28;20136;-73
2023/03/08 07:50:16;;;;;;;0.20;0.20;;;;;;;-3.00;70.05;98593.38;5064476;28;20060;-73
2023/03/08 07:52:42;;;;;;;0.20;0.20;;;;;;;-2.98;69.81;98598.50;5067339;28;20048;-72
2023/03/08 07:55:10;;;;;;;0.17;0.17;;;;;;;-2.86;69.19;98604.81;5066124;28;20040;-72
2023/03/08 07:57:36;;;;;;;;;;;;;;;-2.97;69.61;98585.94;5067785;28;20329;-70
2023/03/08 08:00:07;;;;;;;0.40;0.40;;;;;;;-2.73;69.67;98585.16;5084379;28;19932;-72
2023/03/08 08:02:38;;;;;;;0.30;0.30;;;;;;;-2.50;68.34;98591.75;5086032;28;20134;-72
2023/03/08 08:05:05;;;;;;;0.73;0.27;;;;;;;-2.45;67.74;98591.09;5065270;28;20045;-73
2023/03/08 08:07:31;;;;;;;0.20;0.20;;;;;;;-2.60;68.27;98594.13;5065956;28;20414;-73
2023/03/08 08:10:00;;;;;;;0.20;0.20;;;;;;;-2.66;68.43;98584.28;5065108;28;20094;-72
2023/03/08 08:12:29;;;;;;;0.20;0.20;;;;;;;-2.75;68.67;98586.41;5064428;28;20071;-73
2023/03/08 08:14:56;;;;;;;0.20;0.20;;;;;;;-2.64;68.55;98566.97;5064440;28;20041;-72
2023/03/08 08:17:24;;;;;;;0.32;0.32;;;;;;;-2.56;67.71;98581.94;5067900;28;20071;-73
2023/03/08 08:19:50;;;;;;;0.30;0.30;;;;;;;-2.53;67.37;98575.34;5063673;28;20330;-73
2023/03/08 08:22:17;;;;;;;0.20;0.20;;;;;;;-2.37;66.94;98560.56;5063240;28;20080;-73
2023/03/08 08:24:43;;;;;;;0.30;0.30;;;;;;;-2.30;66.44;98555.97;5044055;28;20052;-73
2023/03/08 08:27:09;;;;;;;0.30;0.30;;;;;;;-2.22;66.28;98569.06;5055251;28;20036;-72
2023/03/08 08:29:36;;;;;;;0.40;0.30;;;;;;;-2.14;65.71;98566.09;5060254;28;20168;-73
2023/03/08 08:32:03;;;;;;;0.20;0.20;;;;;;;-2.40;65.93;98569.88;5062997;28;20048;-73
2023/03/08 08:34:31;;;;;;;0.20;0.20;;;;;;;-2.58;67.26;98578.66;5047723;28;20044;-72
2023/03/08 08:36:57;;;;;;;0.20;0.20;;;;;;;-2.60;66.96;98560.13;5064171;28;20098;-73
2023/03/08 08:39:23;;;;;;;0.30;0.30;;;;;;;-2.74;67.11;98567.47;5062677;28;20040;-72
2023/03/08 08:41:50;;;;;;;0.20;0.20;;;;;;;-2.63;67.53;98557.09;5065393;28;20101;-73
2023/03/08 08:44:16;;;;;;;0.30;0.30;;;;;;;-2.42;67.24;98563.88;5065300;28;20052;-73
2023/03/08 08:46:42;;;;;;;0.20;0.20;;;;;;;-2.52;67.36;98560.91;5064347;28;20110;-73
2023/03/08 08:49:09;;;;;;;0.30;0.30;;;;;;;-2.57;67.62;98550.84;5067364;28;20051;-72
2023/03/08 08:51:37;;;;;;;0.28;0.28;;;;;;;-2.34;67.09;98562.78;5065931;28;20049;-72
2023/03/08 08:54:03;;;;;;;0.20;0.20;;;;;;;-2.34;66.71;98576.16;5067075;28;20060;-72
2023/03/08 08:56:30;;;;;;;0.30;0.30;;;;;;;-2.48;66.89;98560.25;5067942;28;20142;-72
2023/03/08 08:59:01;;;;;;;0.20;0.20;;;;;;;-2.65;67.38;98543.91;5066485;28;20064;-73
2023/03/08 09:01:28;;;;;;;;;;;;;;;-2.50;67.33;98542.75;5073369;28;20062;-72
2023/03/08 09:03:54;;;;;;;0.30;0.30;;;;;;;-2.45;66.69;98548.28;5083863;28;20020;-72
2023/03/08 09:06:22;;;;;;;0.20;0.20;;;;;;;-2.55;67.00;98537.25;5085967;28;20052;-72
2023/03/08 09:08:51;;;;;;;0.20;0.20;;;;;;;-2.36;66.92;98549.63;5068340;28;20088;-73
2023/03/08 09:11:18;;;;;;;0.20;0.20;;;;;;;-2.36;66.15;98514.00;5067630;28;20048;-73
2023/03/08 09:13:44;;;;;;;0.20;0.20;;;;;;;-2.47;66.74;98524.41;5084934;28;20055;-73
2023/03/08 09:16:17;;;;;;;0.30;0.30;;;;;;;-2.40;66.81;98536.91;5085813;28;20420;-73
2023/03/08 09:18:43;;;;;;;0.30;0.30;;;;;;;-2.42;66.98;98527.25;5086066;28;20060;-73
2023/03/08 09:21:10;;;;;;;0.20;0.20;;;;;;;-2.31;66.52;98522.19;5084102;28;20058;-73
2023/03/08 09:23:36;;;;;;;0.20;0.20;;;;;;;-2.22;66.40;98515.50;5084010;28;20205;-73
2023/03/08 09:26:05;;;;;;;0.20;0.20;;;;;;;-2.29;66.22;98518.25;5086971;28;20048;-74
2023/03/08 09:28:31;;;;;;;0.20;0.20;;;;;;;-2.37;66.62;98513.19;5083476;28;20475;-73
2023/03/08 09:30:58;;;;;;;0.30;0.30;;;;;;;-2.52;66.95;98502.81;5064742;28;20131;-73
2023/03/08 09:33:24;;;;;;;0.20;0.20;;;;;;;-2.51;67.19;98500.97;5067174;28;20525;-73
2023/03/08 09:36:00;;;;;;;0.20;0.20;;;;;;;-2.37;67.13;98489.09;5064492;28;20511;-72
2023/03/08 09:38:26;;;;;;;0.30;0.30;;;;;;;-2.01;66.05;98506.19;5080184;28;20056;-72
2023/03/08 09:41:05;;;;;;;0.20;0.20;;;;;;;-1.72;65.35;98498.41;5072679;28;20135;-73
2023/03/08 09:43:42;;;;;;;0.30;0.30;;;;;;;-1.64;64.33;98470.47;5069241;28;20051;-72
2023/03/08 09:46:12;;;;;;;0.30;0.30;;;;;;;-1.46;64.31;98487.56;5084807;28;20051;-71
2023/03/08 09:48:43;;;;;;;0.30;0.30;;;;;;;-1.13;63.36;98467.47;5047453;28;20146;-71
2023/03/08 09:51:17;;;;;;;0.40;0.40;;;;;;;-0.53;61.80;98444.16;5082477;28;20404;-71
2023/03/08 09:53:53;;;;;;;0.30;0.30;;;;;;;-0.28;60.34;98456.50;5051900;28;20056;-71
2023/03/08 09:56:28;;;;;;;0.28;0.28;;;;;;;-0.39;59.53;98457.34;5065645;28;20059;-72
2023/03/08 09:59:01;;;;;;;0.30;0.30;;;;;;;-0.40;60.75;98443.06;5072297;28;20063;-71
2023/03/08 10:01:36;;;;;;;0.30;0.30;;;;;;;-0.05;60.34;98452.94;5081326;28;20040;-71
2023/03/08 10:04:20;;;;;;;0.30;0.30;;;;;;;-0.18;60.41;98435.19;5087230;28;20051;-71
2023/03/08 10:06:59;;;;;;;0.20;0.20;;;;;;;-0.33;62.36;98424.97;5087414;28;20048;-72
2023/03/08 10:09:32;;;;;;;0.30;0.30;;;;;;;-0.49;62.27;98426.50;5076013;28;20487;-72
2023/03/08 10:12:03;;;;;;;0.30;0.30;;;;;;;-0.44;62.62;98417.75;5067566;28;20049;-72
2023/03/08 10:14:34;;;;;;;0.30;0.30;;;;;;;-0.61;62.12;98405.03;5066010;28;20059;-71
2023/03/08 10:17:04;;;;;;;0.20;0.20;;;;;;;-0.59;62.63;98407.50;5065865;28;20056;-73
2023/03/08 10:19:38;;;;;;;0.20;0.20;;;;;;;-0.60;62.84;98400.50;5068442;28;20048;-73
2023/03/08 10:22:14;;;;;;;0.30;0.30;;;;;;;-0.44;62.10;98397.09;5068337;28;20106;-73
2023/03/08 10:24:48;;;;;;;0.20;0.20;;;;;;;-0.32;62.01;98393.53;5065060;28;20080;-73
2023/03/08 10:27:19;;;;;;;0.30;0.30;;;;;;;-0.29;60.71;98383.13;5065934;28;20070;-73
2023/03/08 10:29:53;;;;;;;0.20;0.20;;;;;;;-0.42;61.37;98380.72;5065104;28;20211;-73
2023/03/08 10:32:19;;;;;;;0.20;0.20;;;;;;;-0.25;61.14;98396.09;5079827;28;20044;-73
2023/03/08 10:34:46;;;;;;;0.20;0.20;;;;;;;-0.59;60.53;98389.50;5087313;28;20055;-72
2023/03/08 10:37:13;;;;;;;0.20;0.20;;;;;;;-1.06;61.81;98386.88;5083738;28;20051;-73
2023/03/08 10:39:52;;;;;;;0.20;0.20;;;;;;;-1.37;61.94;98384.28;5071722;28;20427;-73
2023/03/08 10:42:21;;;;;;;0.20;0.20;;;;;;;-1.48;62.98;98369.00;5089200;28;20095;-73
2023/03/08 10:44:56;;;;;;;0.20;0.20;;;;;;;-1.28;63.19;98363.31;5084842;28;20056;-73
2023/03/08 10:47:25;;;;;;;0.30;0.30;;;;;;;-0.90;62.87;98362.00;5085984;28;20047;-73
2023/03/08 10:50:11;;;;;;;0.20;0.20;;;;;;;-0.83;62.26;98356.53;5086651;28;20514;-73
2023/03/08 10:52:37;;;;;;;0.28;0.28;;;;;;;-0.73;61.57;98347.88;5087855;28;20048;-72
2023/03/08 10:55:05;;;;;;;0.20;0.20;;;;;;;-0.61;61.68;98347.88;5085854;28;20046;-73
2023/03/08 10:57:32;;;;;;;0.30;0.30;;;;;;;-0.47;61.12;98333.13;5070690;28;20044;-73
2023/03/08 11:00:12;;;;;;;0.30;0.30;;;;;;;-0.36;60.40;98334.13;5076403;28;20070;-73
2023/03/08 11:02:38;;;;;;;0.30;0.30;;;;;;;-0.13;60.05;98324.31;5078047;28;20049;-73
2023/03/08 11:05:18;;;;;;;0.30;0.30;;;;;;;-0.31;59.40;98338.78;5072334;28;20096;-72
2023/03/08 11:07:50;;;;;;;0.30;0.30;;;;;;;-0.41;59.56;98328.63;5081470;28;20085;-73
2023/03/08 11:10:19;;;;;;;0.30;0.30;;;;;;;-0.47;59.77;98316.16;5048669;28;20052;-73
2023/03/08 11:12:45;;;;;;;0.30;0.30;;;;;;;-0.33;59.97;98311.31;5061403;28;20048;-72
2023/03/08 11:15:14;;;;;;;0.20;0.20;;;;;;;0.10;59.50;98322.59;5065192;28;20098;-73
2023/03/08 11:17:50;;;;;;;0.30;0.30;;;;;;;0.19;58.02;98306.88;5063658;28;20084;-72
2023/03/08 11:20:19;;;;;;;0.30;0.30;;;;;;;-0.02;58.44;98304.66;4716939;27;10000585;-73
2023/03/08 11:23:11;;;;;;;0.30;0.30;;;;;;;-0.07;58.53;98291.13;5062048;28;20070;-73
2023/03/08 11:25:44;;;;;;;0.30;0.30;;;;;;;0.18;58.36;98275.69;5063304;28;20055;-73
2023/03/08 11:28:34;;;;;;;0.30;0.30;;;;;;;0.51;57.45;98268.66;5082835;28;20193;-72
2023/03/08 11:31:16;;;;;;;0.30;0.30;;;;;;;0.53;57.75;98250.38;5082620;28;20052;-72
2023/03/08 11:34:22;;;;;;;0.30;0.30;;;;;;;0.94;56.92;98263.59;5072817;28;20435;-72
2023/03/08 11:36:59;;;;;;;0.30;0.30;;;;;;;1.21;56.21;98252.09;5043953;28;20358;-72
2023/03/08 11:39:29;;;;;;;0.30;0.30;;;;;;;1.38;56.06;98236.66;5054299;28;20049;-72
2023/03/08 11:42:03;;;;;;;0.30;0.30;;;;;;;1.57;55.28;98244.38;5045951;28;20048;-72